sensor_id;sensor_type;location;lat;lon;timestamp;P1;durP1;ratioP1;P2;durP2;ratioP2
291;SDS011;23311;48.776;9.162;2022-10-18T00:00:58;14.37;;;7.10;;
291;SDS011;23311;48.776;9.162;2022-10-18T00:03:27;7.17;;;6.17;;
291;SDS011;23311;48.776;9.162;2022-10-18T00:05:55;9.30;;;6.77;;
291;SDS011;23311;48.776;9.162;2022-10-18T00:08:24;9.80;;;6.43;;
291;SDS011;23311;48.776;9.162;2022-10-18T00:10:52;8.20;;;6.87;;
291;SDS011;23311;48.776;9.162;2022-10-18T00:13:20;7.60;;;7.20;;
291;SDS011;23311;48.776;9.162;2022-10-18T00:15:49;8.17;;;7.07;;
291;SDS011;23311;48.776;9.162;2022-10-18T00:18:22;9.43;;;6.17;;
291;SDS011;23311;48.776;9.162;2022-10-18T00:20:59;7.40;;;6.17;;
291;SDS011;23311;48.776;9.162;2022-10-18T00:23:29;14.93;;;7.17;;
291;SDS011;23311;48.776;9.162;2022-10-18T00:25:59;8.47;;;6.40;;
291;SDS011;23311;48.776;9.162;2022-10-18T00:28:28;7.33;;;6.90;;
291;SDS011;23311;48.776;9.162;2022-10-18T00:30:57;7.50;;;6.70;;
291;SDS011;23311;48.776;9.162;2022-10-18T00:33:34;6.90;;;6.50;;
291;SDS011;23311;48.776;9.162;2022-10-18T00:36:04;8.97;;;6.77;;
291;SDS011;23311;48.776;9.162;2022-10-18T00:38:33;7.07;;;6.10;;
291;SDS011;23311;48.776;9.162;2022-10-18T00:41:01;6.50;;;5.57;;
291;SDS011;23311;48.776;9.162;2022-10-18T00:43:30;7.70;;;6.70;;
291;SDS011;23311;48.776;9.162;2022-10-18T00:45:58;7.27;;;6.00;;
291;SDS011;23311;48.776;9.162;2022-10-18T00:48:26;7.90;;;6.07;;
291;SDS011;23311;48.776;9.162;2022-10-18T00:50:54;9.37;;;6.33;;
291;SDS011;23311;48.776;9.162;2022-10-18T00:53:23;8.10;;;5.10;;
291;SDS011;23311;48.776;9.162;2022-10-18T00:55:52;6.80;;;5.63;;
291;SDS011;23311;48.776;9.162;2022-10-18T00:58:20;6.83;;;5.40;;
291;SDS011;23311;48.776;9.162;2022-10-18T01:00:48;5.33;;;5.03;;
291;SDS011;23311;48.776;9.162;2022-10-18T01:03:16;6.53;;;5.20;;
291;SDS011;23311;48.776;9.162;2022-10-18T01:05:45;6.50;;;5.33;;
291;SDS011;23311;48.776;9.162;2022-10-18T01:08:17;7.73;;;5.90;;
291;SDS011;23311;48.776;9.162;2022-10-18T01:11:06;8.93;;;5.33;;
291;SDS011;23311;48.776;9.162;2022-10-18T01:13:45;10.83;;;5.33;;
291;SDS011;23311;48.776;9.162;2022-10-18T01:16:28;6.50;;;5.37;;
291;SDS011;23311;48.776;9.162;2022-10-18T01:19:05;5.37;;;4.07;;
291;SDS011;23311;48.776;9.162;2022-10-18T01:21:41;9.90;;;5.30;;
291;SDS011;23311;48.776;9.162;2022-10-18T01:27:20;4.53;;;3.90;;
291;SDS011;23311;48.776;9.162;2022-10-18T01:30:06;5.80;;;4.07;;
291;SDS011;23311;48.776;9.162;2022-10-18T01:33:03;4.50;;;3.83;;
291;SDS011;23311;48.776;9.162;2022-10-18T01:35:41;5.10;;;4.20;;
291;SDS011;23311;48.776;9.162;2022-10-18T01:38:15;7.97;;;3.63;;
291;SDS011;23311;48.776;9.162;2022-10-18T01:40:46;4.10;;;3.90;;
291;SDS011;23311;48.776;9.162;2022-10-18T01:43:16;6.73;;;3.73;;
291;SDS011;23311;48.776;9.162;2022-10-18T01:45:46;4.07;;;3.47;;
291;SDS011;23311;48.776;9.162;2022-10-18T01:48:16;9.27;;;3.87;;
291;SDS011;23311;48.776;9.162;2022-10-18T01:50:44;7.57;;;3.70;;
291;SDS011;23311;48.776;9.162;2022-10-18T01:53:22;6.20;;;3.50;;
291;SDS011;23311;48.776;9.162;2022-10-18T01:55:58;5.73;;;3.50;;
291;SDS011;23311;48.776;9.162;2022-10-18T01:59:01;4.57;;;3.57;;
291;SDS011;23311;48.776;9.162;2022-10-18T02:01:40;8.57;;;3.57;;
291;SDS011;23311;48.776;9.162;2022-10-18T02:04:21;6.40;;;3.90;;
291;SDS011;23311;48.776;9.162;2022-10-18T02:06:56;3.30;;;3.00;;
291;SDS011;23311;48.776;9.162;2022-10-18T02:09:31;4.07;;;3.20;;
291;SDS011;23311;48.776;9.162;2022-10-18T02:12:05;4.70;;;3.60;;
291;SDS011;23311;48.776;9.162;2022-10-18T02:14:37;5.47;;;3.27;;
291;SDS011;23311;48.776;9.162;2022-10-18T02:17:07;5.00;;;3.43;;
291;SDS011;23311;48.776;9.162;2022-10-18T02:19:39;6.00;;;3.67;;
291;SDS011;23311;48.776;9.162;2022-10-18T02:22:11;4.60;;;4.10;;
291;SDS011;23311;48.776;9.162;2022-10-18T02:24:41;4.17;;;2.90;;
291;SDS011;23311;48.776;9.162;2022-10-18T02:27:11;7.53;;;4.07;;
291;SDS011;23311;48.776;9.162;2022-10-18T02:29:39;8.30;;;3.43;;
291;SDS011;23311;48.776;9.162;2022-10-18T02:32:10;10.97;;;3.80;;
291;SDS011;23311;48.776;9.162;2022-10-18T02:34:45;6.90;;;3.53;;
291;SDS011;23311;48.776;9.162;2022-10-18T02:37:17;4.80;;;3.80;;
291;SDS011;23311;48.776;9.162;2022-10-18T02:39:47;4.90;;;3.00;;
291;SDS011;23311;48.776;9.162;2022-10-18T02:42:16;4.83;;;3.33;;
291;SDS011;23311;48.776;9.162;2022-10-18T02:44:44;4.50;;;3.47;;
291;SDS011;23311;48.776;9.162;2022-10-18T02:47:12;7.83;;;4.10;;
291;SDS011;23311;48.776;9.162;2022-10-18T02:49:40;7.60;;;3.10;;
291;SDS011;23311;48.776;9.162;2022-10-18T02:52:10;5.93;;;4.03;;
291;SDS011;23311;48.776;9.162;2022-10-18T02:54:38;3.80;;;3.40;;
291;SDS011;23311;48.776;9.162;2022-10-18T02:57:06;3.90;;;3.50;;
291;SDS011;23311;48.776;9.162;2022-10-18T02:59:34;3.23;;;3.10;;
291;SDS011;23311;48.776;9.162;2022-10-18T03:02:02;5.60;;;3.37;;
291;SDS011;23311;48.776;9.162;2022-10-18T03:04:31;7.37;;;2.90;;
291;SDS011;23311;48.776;9.162;2022-10-18T03:06:59;6.57;;;3.37;;
291;SDS011;23311;48.776;9.162;2022-10-18T03:09:28;7.20;;;4.00;;
291;SDS011;23311;48.776;9.162;2022-10-18T03:11:56;6.10;;;3.87;;
291;SDS011;23311;48.776;9.162;2022-10-18T03:14:24;10.87;;;4.23;;
291;SDS011;23311;48.776;9.162;2022-10-18T03:16:52;4.27;;;3.47;;
291;SDS011;23311;48.776;9.162;2022-10-18T03:19:20;4.63;;;3.67;;
291;SDS011;23311;48.776;9.162;2022-10-18T03:21:48;14.07;;;4.40;;
291;SDS011;23311;48.776;9.162;2022-10-18T03:24:16;4.77;;;3.20;;
291;SDS011;23311;48.776;9.162;2022-10-18T03:26:46;4.53;;;4.03;;
291;SDS011;23311;48.776;9.162;2022-10-18T03:29:14;8.33;;;3.50;;
291;SDS011;23311;48.776;9.162;2022-10-18T03:31:42;4.77;;;3.60;;
291;SDS011;23311;48.776;9.162;2022-10-18T03:34:10;3.57;;;3.40;;
291;SDS011;23311;48.776;9.162;2022-10-18T03:36:38;7.77;;;3.50;;
291;SDS011;23311;48.776;9.162;2022-10-18T03:39:06;4.00;;;3.80;;
291;SDS011;23311;48.776;9.162;2022-10-18T03:41:34;4.20;;;3.80;;
291;SDS011;23311;48.776;9.162;2022-10-18T03:44:04;6.47;;;3.50;;
291;SDS011;23311;48.776;9.162;2022-10-18T03:46:32;7.00;;;3.40;;
291;SDS011;23311;48.776;9.162;2022-10-18T03:49:00;4.70;;;3.10;;
291;SDS011;23311;48.776;9.162;2022-10-18T03:51:28;3.27;;;2.90;;
291;SDS011;23311;48.776;9.162;2022-10-18T03:53:56;5.67;;;3.67;;
291;SDS011;23311;48.776;9.162;2022-10-18T03:56:24;6.00;;;3.30;;
291;SDS011;23311;48.776;9.162;2022-10-18T03:58:52;5.53;;;3.23;;
291;SDS011;23311;48.776;9.162;2022-10-18T04:01:21;4.27;;;3.20;;
291;SDS011;23311;48.776;9.162;2022-10-18T04:03:49;6.13;;;3.57;;
291;SDS011;23311;48.776;9.162;2022-10-18T04:06:17;5.27;;;3.10;;
291;SDS011;23311;48.776;9.162;2022-10-18T04:08:45;5.60;;;3.73;;
291;SDS011;23311;48.776;9.162;2022-10-18T04:11:13;3.43;;;3.07;;
291;SDS011;23311;48.776;9.162;2022-10-18T04:13:41;4.27;;;3.40;;
291;SDS011;23311;48.776;9.162;2022-10-18T04:16:09;5.00;;;3.70;;
291;SDS011;23311;48.776;9.162;2022-10-18T04:18:39;3.30;;;3.10;;
291;SDS011;23311;48.776;9.162;2022-10-18T04:21:07;5.80;;;3.17;;
291;SDS011;23311;48.776;9.162;2022-10-18T04:23:35;3.77;;;3.60;;
291;SDS011;23311;48.776;9.162;2022-10-18T04:26:04;4.40;;;3.40;;
291;SDS011;23311;48.776;9.162;2022-10-18T04:28:33;4.87;;;3.33;;
291;SDS011;23311;48.776;9.162;2022-10-18T04:31:05;5.80;;;3.90;;
291;SDS011;23311;48.776;9.162;2022-10-18T04:33:33;4.43;;;3.40;;
291;SDS011;23311;48.776;9.162;2022-10-18T04:36:03;6.90;;;3.50;;
291;SDS011;23311;48.776;9.162;2022-10-18T04:38:31;4.60;;;2.97;;
291;SDS011;23311;48.776;9.162;2022-10-18T04:40:59;4.30;;;3.40;;
291;SDS011;23311;48.776;9.162;2022-10-18T04:43:27;3.40;;;3.20;;
291;SDS011;23311;48.776;9.162;2022-10-18T04:45:55;4.00;;;2.83;;
291;SDS011;23311;48.776;9.162;2022-10-18T04:48:23;3.73;;;3.00;;
291;SDS011;23311;48.776;9.162;2022-10-18T04:50:51;9.23;;;2.87;;
291;SDS011;23311;48.776;9.162;2022-10-18T04:53:21;3.93;;;2.73;;
291;SDS011;23311;48.776;9.162;2022-10-18T04:55:49;3.37;;;3.17;;
291;SDS011;23311;48.776;9.162;2022-10-18T04:58:17;6.07;;;3.40;;
291;SDS011;23311;48.776;9.162;2022-10-18T05:00:45;2.70;;;2.60;;
291;SDS011;23311;48.776;9.162;2022-10-18T05:03:14;4.20;;;3.00;;
291;SDS011;23311;48.776;9.162;2022-10-18T05:05:42;3.30;;;2.57;;
291;SDS011;23311;48.776;9.162;2022-10-18T05:08:30;3.67;;;3.17;;
291;SDS011;23311;48.776;9.162;2022-10-18T05:11:00;2.80;;;2.60;;
291;SDS011;23311;48.776;9.162;2022-10-18T05:13:28;2.97;;;2.73;;
291;SDS011;23311;48.776;9.162;2022-10-18T05:15:57;3.93;;;3.70;;
291;SDS011;23311;48.776;9.162;2022-10-18T05:18:26;2.83;;;2.67;;
291;SDS011;23311;48.776;9.162;2022-10-18T05:20:54;3.70;;;2.50;;
291;SDS011;23311;48.776;9.162;2022-10-18T05:23:22;4.80;;;2.93;;
291;SDS011;23311;48.776;9.162;2022-10-18T05:25:52;3.40;;;3.10;;
291;SDS011;23311;48.776;9.162;2022-10-18T05:28:20;3.57;;;3.07;;
291;SDS011;23311;48.776;9.162;2022-10-18T05:31:07;4.47;;;3.70;;
291;SDS011;23311;48.776;9.162;2022-10-18T05:33:36;5.13;;;3.30;;
291;SDS011;23311;48.776;9.162;2022-10-18T05:36:05;5.90;;;3.30;;
291;SDS011;23311;48.776;9.162;2022-10-18T05:38:36;4.90;;;3.60;;
291;SDS011;23311;48.776;9.162;2022-10-18T05:41:06;4.03;;;3.50;;
291;SDS011;23311;48.776;9.162;2022-10-18T05:43:35;4.57;;;3.67;;
291;SDS011;23311;48.776;9.162;2022-10-18T05:46:03;6.43;;;3.87;;
291;SDS011;23311;48.776;9.162;2022-10-18T05:48:39;5.43;;;3.53;;
291;SDS011;23311;48.776;9.162;2022-10-18T05:51:07;4.27;;;4.00;;
291;SDS011;23311;48.776;9.162;2022-10-18T05:53:35;4.77;;;3.37;;
291;SDS011;23311;48.776;9.162;2022-10-18T05:56:04;4.60;;;3.90;;
291;SDS011;23311;48.776;9.162;2022-10-18T05:58:34;7.83;;;4.27;;
291;SDS011;23311;48.776;9.162;2022-10-18T06:01:02;4.20;;;3.27;;
291;SDS011;23311;48.776;9.162;2022-10-18T06:03:32;4.63;;;3.10;;
291;SDS011;23311;48.776;9.162;2022-10-18T06:06:00;3.70;;;3.20;;
291;SDS011;23311;48.776;9.162;2022-10-18T06:08:29;5.03;;;3.83;;
291;SDS011;23311;48.776;9.162;2022-10-18T06:10:58;5.83;;;3.10;;
291;SDS011;23311;48.776;9.162;2022-10-18T06:13:26;5.90;;;4.20;;
291;SDS011;23311;48.776;9.162;2022-10-18T06:15:59;6.10;;;2.83;;
291;SDS011;23311;48.776;9.162;2022-10-18T06:18:27;4.33;;;3.50;;
291;SDS011;23311;48.776;9.162;2022-10-18T06:20:56;3.37;;;3.20;;
291;SDS011;23311;48.776;9.162;2022-10-18T06:23:24;4.07;;;3.60;;
291;SDS011;23311;48.776;9.162;2022-10-18T06:25:56;5.33;;;3.60;;
291;SDS011;23311;48.776;9.162;2022-10-18T06:28:26;3.90;;;3.70;;
291;SDS011;23311;48.776;9.162;2022-10-18T06:30:54;4.57;;;3.30;;
291;SDS011;23311;48.776;9.162;2022-10-18T06:33:24;3.73;;;2.93;;
291;SDS011;23311;48.776;9.162;2022-10-18T06:35:53;5.67;;;3.90;;
291;SDS011;23311;48.776;9.162;2022-10-18T06:38:21;3.97;;;3.40;;
291;SDS011;23311;48.776;9.162;2022-10-18T06:40:50;5.07;;;3.13;;
291;SDS011;23311;48.776;9.162;2022-10-18T06:43:18;5.23;;;3.70;;
291;SDS011;23311;48.776;9.162;2022-10-18T06:45:47;4.50;;;3.03;;
291;SDS011;23311;48.776;9.162;2022-10-18T06:48:15;4.50;;;2.93;;
291;SDS011;23311;48.776;9.162;2022-10-18T06:50:51;3.90;;;2.53;;
291;SDS011;23311;48.776;9.162;2022-10-18T06:53:22;3.60;;;2.43;;
291;SDS011;23311;48.776;9.162;2022-10-18T06:55:50;6.63;;;3.50;;
291;SDS011;23311;48.776;9.162;2022-10-18T06:58:19;4.90;;;3.33;;
291;SDS011;23311;48.776;9.162;2022-10-18T07:00:47;4.27;;;3.43;;
291;SDS011;23311;48.776;9.162;2022-10-18T07:03:15;3.17;;;3.03;;
291;SDS011;23311;48.776;9.162;2022-10-18T07:05:43;2.97;;;2.80;;
291;SDS011;23311;48.776;9.162;2022-10-18T07:08:13;5.23;;;3.13;;
291;SDS011;23311;48.776;9.162;2022-10-18T07:10:41;3.53;;;3.33;;
291;SDS011;23311;48.776;9.162;2022-10-18T07:13:09;4.47;;;3.33;;
291;SDS011;23311;48.776;9.162;2022-10-18T07:16:01;4.93;;;3.10;;
291;SDS011;23311;48.776;9.162;2022-10-18T07:18:31;4.10;;;3.37;;
291;SDS011;23311;48.776;9.162;2022-10-18T07:21:00;6.43;;;3.27;;
291;SDS011;23311;48.776;9.162;2022-10-18T07:23:32;3.20;;;3.00;;
291;SDS011;23311;48.776;9.162;2022-10-18T07:26:01;4.17;;;3.73;;
291;SDS011;23311;48.776;9.162;2022-10-18T07:28:36;3.30;;;2.53;;
291;SDS011;23311;48.776;9.162;2022-10-18T07:31:05;3.80;;;3.20;;
291;SDS011;23311;48.776;9.162;2022-10-18T07:33:34;6.63;;;3.03;;
291;SDS011;23311;48.776;9.162;2022-10-18T07:36:03;4.60;;;2.90;;
291;SDS011;23311;48.776;9.162;2022-10-18T07:38:35;5.30;;;2.90;;
291;SDS011;23311;48.776;9.162;2022-10-18T07:41:04;8.67;;;3.60;;
291;SDS011;23311;48.776;9.162;2022-10-18T07:43:33;5.20;;;2.90;;
291;SDS011;23311;48.776;9.162;2022-10-18T07:46:02;3.30;;;3.13;;
291;SDS011;23311;48.776;9.162;2022-10-18T07:48:31;3.73;;;3.33;;
291;SDS011;23311;48.776;9.162;2022-10-18T07:50:59;2.83;;;2.70;;
291;SDS011;23311;48.776;9.162;2022-10-18T07:53:28;3.63;;;3.43;;
291;SDS011;23311;48.776;9.162;2022-10-18T07:55:58;5.83;;;3.30;;
291;SDS011;23311;48.776;9.162;2022-10-18T07:58:32;3.80;;;3.40;;
291;SDS011;23311;48.776;9.162;2022-10-18T08:01:01;4.93;;;2.93;;
291;SDS011;23311;48.776;9.162;2022-10-18T08:03:29;3.40;;;2.77;;
291;SDS011;23311;48.776;9.162;2022-10-18T08:05:58;4.53;;;2.77;;
291;SDS011;23311;48.776;9.162;2022-10-18T08:08:26;3.60;;;3.23;;
291;SDS011;23311;48.776;9.162;2022-10-18T08:10:55;5.87;;;3.17;;
291;SDS011;23311;48.776;9.162;2022-10-18T08:13:30;6.07;;;3.00;;
291;SDS011;23311;48.776;9.162;2022-10-18T08:15:59;4.40;;;3.17;;
291;SDS011;23311;48.776;9.162;2022-10-18T08:18:27;7.67;;;3.47;;
291;SDS011;23311;48.776;9.162;2022-10-18T08:20:55;4.50;;;3.03;;
291;SDS011;23311;48.776;9.162;2022-10-18T08:23:25;8.83;;;3.47;;
291;SDS011;23311;48.776;9.162;2022-10-18T08:25:53;6.30;;;3.17;;
291;SDS011;23311;48.776;9.162;2022-10-18T08:28:23;8.83;;;3.73;;
291;SDS011;23311;48.776;9.162;2022-10-18T08:30:51;3.60;;;3.33;;
291;SDS011;23311;48.776;9.162;2022-10-18T08:33:19;7.30;;;3.30;;
291;SDS011;23311;48.776;9.162;2022-10-18T08:35:53;3.43;;;2.83;;
291;SDS011;23311;48.776;9.162;2022-10-18T08:38:21;4.90;;;2.90;;
291;SDS011;23311;48.776;9.162;2022-10-18T08:40:50;4.47;;;3.50;;
291;SDS011;23311;48.776;9.162;2022-10-18T08:43:23;5.03;;;2.87;;
291;SDS011;23311;48.776;9.162;2022-10-18T08:45:57;7.43;;;3.60;;
291;SDS011;23311;48.776;9.162;2022-10-18T08:48:35;4.53;;;3.77;;
291;SDS011;23311;48.776;9.162;2022-10-18T08:51:10;5.70;;;3.30;;
291;SDS011;23311;48.776;9.162;2022-10-18T08:53:45;4.40;;;3.67;;
291;SDS011;23311;48.776;9.162;2022-10-18T08:56:22;3.53;;;3.13;;
291;SDS011;23311;48.776;9.162;2022-10-18T08:58:53;6.83;;;3.37;;
291;SDS011;23311;48.776;9.162;2022-10-18T09:01:24;4.47;;;3.03;;
291;SDS011;23311;48.776;9.162;2022-10-18T09:04:07;4.30;;;3.10;;
291;SDS011;23311;48.776;9.162;2022-10-18T09:06:50;5.83;;;3.40;;
291;SDS011;23311;48.776;9.162;2022-10-18T09:09:33;4.03;;;3.40;;
291;SDS011;23311;48.776;9.162;2022-10-18T09:12:25;4.70;;;3.03;;
291;SDS011;23311;48.776;9.162;2022-10-18T09:15:12;4.93;;;3.13;;
291;SDS011;23311;48.776;9.162;2022-10-18T09:17:49;9.00;;;3.73;;
291;SDS011;23311;48.776;9.162;2022-10-18T09:20:29;5.93;;;3.03;;
291;SDS011;23311;48.776;9.162;2022-10-18T09:23:10;3.40;;;2.87;;
291;SDS011;23311;48.776;9.162;2022-10-18T09:25:44;3.20;;;2.97;;
291;SDS011;23311;48.776;9.162;2022-10-18T09:28:14;3.97;;;2.70;;
291;SDS011;23311;48.776;9.162;2022-10-18T09:30:53;6.07;;;3.47;;
291;SDS011;23311;48.776;9.162;2022-10-18T09:36:17;4.93;;;2.30;;
291;SDS011;23311;48.776;9.162;2022-10-18T09:38:48;4.97;;;3.37;;
291;SDS011;23311;48.776;9.162;2022-10-18T09:41:24;3.77;;;3.30;;
291;SDS011;23311;48.776;9.162;2022-10-18T09:43:59;4.37;;;3.30;;
291;SDS011;23311;48.776;9.162;2022-10-18T09:46:35;3.27;;;3.10;;
291;SDS011;23311;48.776;9.162;2022-10-18T09:49:08;5.30;;;3.47;;
291;SDS011;23311;48.776;9.162;2022-10-18T09:51:41;6.07;;;3.13;;
291;SDS011;23311;48.776;9.162;2022-10-18T09:54:16;5.20;;;3.47;;
291;SDS011;23311;48.776;9.162;2022-10-18T09:56:48;6.93;;;3.60;;
291;SDS011;23311;48.776;9.162;2022-10-18T09:59:35;5.67;;;3.30;;
291;SDS011;23311;48.776;9.162;2022-10-18T10:02:08;6.63;;;4.17;;
291;SDS011;23311;48.776;9.162;2022-10-18T10:04:40;7.20;;;3.80;;
291;SDS011;23311;48.776;9.162;2022-10-18T10:07:10;8.50;;;3.83;;
291;SDS011;23311;48.776;9.162;2022-10-18T10:09:40;3.37;;;3.00;;
291;SDS011;23311;48.776;9.162;2022-10-18T10:12:26;3.33;;;3.13;;
291;SDS011;23311;48.776;9.162;2022-10-18T10:15:05;6.47;;;3.47;;
291;SDS011;23311;48.776;9.162;2022-10-18T10:17:37;7.50;;;3.37;;
291;SDS011;23311;48.776;9.162;2022-10-18T10:20:13;6.13;;;3.80;;
291;SDS011;23311;48.776;9.162;2022-10-18T10:22:45;4.30;;;3.10;;
291;SDS011;23311;48.776;9.162;2022-10-18T10:25:18;6.10;;;3.63;;
291;SDS011;23311;48.776;9.162;2022-10-18T10:27:49;8.60;;;4.50;;
291;SDS011;23311;48.776;9.162;2022-10-18T10:30:22;6.27;;;3.70;;
291;SDS011;23311;48.776;9.162;2022-10-18T10:32:54;6.37;;;4.70;;
291;SDS011;23311;48.776;9.162;2022-10-18T10:35:23;5.37;;;3.60;;
291;SDS011;23311;48.776;9.162;2022-10-18T10:38:21;3.80;;;3.07;;
291;SDS011;23311;48.776;9.162;2022-10-18T10:40:50;3.23;;;2.90;;
291;SDS011;23311;48.776;9.162;2022-10-18T10:43:20;5.57;;;5.10;;
291;SDS011;23311;48.776;9.162;2022-10-18T10:46:06;5.90;;;4.47;;
291;SDS011;23311;48.776;9.162;2022-10-18T10:48:45;7.73;;;3.60;;
291;SDS011;23311;48.776;9.162;2022-10-18T10:51:16;4.10;;;3.90;;
291;SDS011;23311;48.776;9.162;2022-10-18T10:53:58;5.93;;;3.50;;
291;SDS011;23311;48.776;9.162;2022-10-18T10:56:28;4.87;;;3.70;;
291;SDS011;23311;48.776;9.162;2022-10-18T10:59:00;5.17;;;3.60;;
291;SDS011;23311;48.776;9.162;2022-10-18T11:01:36;3.90;;;3.73;;
291;SDS011;23311;48.776;9.162;2022-10-18T11:07:03;4.87;;;4.30;;
291;SDS011;23311;48.776;9.162;2022-10-18T11:09:44;5.80;;;3.50;;
291;SDS011;23311;48.776;9.162;2022-10-18T11:12:21;5.07;;;4.07;;
291;SDS011;23311;48.776;9.162;2022-10-18T11:14:56;7.63;;;3.70;;
291;SDS011;23311;48.776;9.162;2022-10-18T11:17:38;6.23;;;3.23;;
291;SDS011;23311;48.776;9.162;2022-10-18T11:20:18;7.70;;;4.60;;
291;SDS011;23311;48.776;9.162;2022-10-18T11:22:56;3.40;;;3.20;;
291;SDS011;23311;48.776;9.162;2022-10-18T11:25:43;5.23;;;3.87;;
291;SDS011;23311;48.776;9.162;2022-10-18T11:28:20;7.07;;;4.20;;
291;SDS011;23311;48.776;9.162;2022-10-18T11:31:05;4.57;;;3.83;;
291;SDS011;23311;48.776;9.162;2022-10-18T11:33:40;8.77;;;4.10;;
291;SDS011;23311;48.776;9.162;2022-10-18T11:36:39;6.00;;;4.47;;
291;SDS011;23311;48.776;9.162;2022-10-18T11:39:36;5.47;;;3.80;;
291;SDS011;23311;48.776;9.162;2022-10-18T11:42:15;6.13;;;4.23;;
291;SDS011;23311;48.776;9.162;2022-10-18T11:44:56;4.40;;;4.07;;
291;SDS011;23311;48.776;9.162;2022-10-18T11:47:36;4.90;;;4.30;;
291;SDS011;23311;48.776;9.162;2022-10-18T11:50:21;6.87;;;4.00;;
291;SDS011;23311;48.776;9.162;2022-10-18T11:53:01;9.53;;;4.93;;
291;SDS011;23311;48.776;9.162;2022-10-18T11:55:37;7.67;;;3.63;;
291;SDS011;23311;48.776;9.162;2022-10-18T11:58:21;5.23;;;4.13;;
291;SDS011;23311;48.776;9.162;2022-10-18T12:01:00;6.13;;;3.60;;
291;SDS011;23311;48.776;9.162;2022-10-18T12:03:41;4.30;;;3.60;;
291;SDS011;23311;48.776;9.162;2022-10-18T12:06:18;9.10;;;3.60;;
291;SDS011;23311;48.776;9.162;2022-10-18T12:08:52;6.80;;;4.00;;
291;SDS011;23311;48.776;9.162;2022-10-18T12:11:25;6.10;;;3.63;;
291;SDS011;23311;48.776;9.162;2022-10-18T12:13:57;4.93;;;3.67;;
291;SDS011;23311;48.776;9.162;2022-10-18T12:16:28;5.83;;;3.87;;
291;SDS011;23311;48.776;9.162;2022-10-18T12:19:17;4.13;;;3.20;;
291;SDS011;23311;48.776;9.162;2022-10-18T12:21:53;5.47;;;3.90;;
291;SDS011;23311;48.776;9.162;2022-10-18T12:24:25;7.83;;;3.50;;
291;SDS011;23311;48.776;9.162;2022-10-18T12:26:56;3.90;;;2.80;;
291;SDS011;23311;48.776;9.162;2022-10-18T12:29:26;3.80;;;2.70;;
291;SDS011;23311;48.776;9.162;2022-10-18T12:32:00;2.90;;;1.93;;
291;SDS011;23311;48.776;9.162;2022-10-18T12:34:33;5.27;;;2.73;;
291;SDS011;23311;48.776;9.162;2022-10-18T12:37:09;3.33;;;1.57;;
291;SDS011;23311;48.776;9.162;2022-10-18T12:40:04;4.87;;;2.43;;
291;SDS011;23311;48.776;9.162;2022-10-18T12:42:44;7.20;;;3.03;;
291;SDS011;23311;48.776;9.162;2022-10-18T12:45:18;2.43;;;1.90;;
291;SDS011;23311;48.776;9.162;2022-10-18T12:47:54;4.80;;;2.43;;
291;SDS011;23311;48.776;9.162;2022-10-18T12:50:27;3.13;;;1.70;;
291;SDS011;23311;48.776;9.162;2022-10-18T12:53:02;2.90;;;1.80;;
291;SDS011;23311;48.776;9.162;2022-10-18T12:55:33;3.10;;;2.20;;
291;SDS011;23311;48.776;9.162;2022-10-18T12:58:04;4.00;;;2.13;;
291;SDS011;23311;48.776;9.162;2022-10-18T13:00:55;3.67;;;2.63;;
291;SDS011;23311;48.776;9.162;2022-10-18T13:06:20;7.60;;;3.20;;
291;SDS011;23311;48.776;9.162;2022-10-18T13:11:48;4.40;;;2.80;;
291;SDS011;23311;48.776;9.162;2022-10-18T13:17:43;3.73;;;2.73;;
291;SDS011;23311;48.776;9.162;2022-10-18T13:20:18;6.20;;;3.20;;
291;SDS011;23311;48.776;9.162;2022-10-18T13:22:56;3.70;;;2.73;;
291;SDS011;23311;48.776;9.162;2022-10-18T13:25:40;3.63;;;2.43;;
291;SDS011;23311;48.776;9.162;2022-10-18T13:28:22;3.20;;;2.20;;
291;SDS011;23311;48.776;9.162;2022-10-18T13:30:58;4.67;;;2.20;;
291;SDS011;23311;48.776;9.162;2022-10-18T13:33:31;4.43;;;2.50;;
291;SDS011;23311;48.776;9.162;2022-10-18T13:36:03;6.00;;;2.47;;
291;SDS011;23311;48.776;9.162;2022-10-18T13:38:35;3.30;;;2.30;;
291;SDS011;23311;48.776;9.162;2022-10-18T13:41:09;3.10;;;1.70;;
291;SDS011;23311;48.776;9.162;2022-10-18T13:43:50;3.30;;;1.70;;
291;SDS011;23311;48.776;9.162;2022-10-18T13:49:51;2.60;;;1.47;;
291;SDS011;23311;48.776;9.162;2022-10-18T13:55:51;4.50;;;1.60;;
291;SDS011;23311;48.776;9.162;2022-10-18T13:58:29;2.03;;;1.30;;
291;SDS011;23311;48.776;9.162;2022-10-18T14:01:22;1.47;;;1.40;;
291;SDS011;23311;48.776;9.162;2022-10-18T14:04:04;1.30;;;1.17;;
291;SDS011;23311;48.776;9.162;2022-10-18T14:06:56;2.07;;;1.90;;
291;SDS011;23311;48.776;9.162;2022-10-18T14:09:29;2.20;;;1.70;;
291;SDS011;23311;48.776;9.162;2022-10-18T14:12:12;5.93;;;3.30;;
291;SDS011;23311;48.776;9.162;2022-10-18T14:14:49;2.87;;;2.67;;
291;SDS011;23311;48.776;9.162;2022-10-18T14:17:26;3.90;;;2.80;;
291;SDS011;23311;48.776;9.162;2022-10-18T14:19:59;2.87;;;2.50;;
291;SDS011;23311;48.776;9.162;2022-10-18T14:22:33;4.40;;;3.53;;
291;SDS011;23311;48.776;9.162;2022-10-18T14:25:17;3.70;;;3.50;;
291;SDS011;23311;48.776;9.162;2022-10-18T14:27:47;7.57;;;3.70;;
291;SDS011;23311;48.776;9.162;2022-10-18T14:30:28;3.40;;;3.20;;
291;SDS011;23311;48.776;9.162;2022-10-18T14:32:58;6.80;;;3.90;;
291;SDS011;23311;48.776;9.162;2022-10-18T14:35:26;4.60;;;3.30;;
291;SDS011;23311;48.776;9.162;2022-10-18T14:37:59;3.60;;;2.93;;
291;SDS011;23311;48.776;9.162;2022-10-18T14:40:30;3.93;;;3.20;;
291;SDS011;23311;48.776;9.162;2022-10-18T14:43:01;2.97;;;2.77;;
291;SDS011;23311;48.776;9.162;2022-10-18T14:45:30;5.70;;;3.00;;
291;SDS011;23311;48.776;9.162;2022-10-18T14:48:13;3.00;;;2.83;;
291;SDS011;23311;48.776;9.162;2022-10-18T14:50:43;2.43;;;2.23;;
291;SDS011;23311;48.776;9.162;2022-10-18T14:53:15;3.97;;;2.33;;
291;SDS011;23311;48.776;9.162;2022-10-18T14:55:51;2.80;;;2.60;;
291;SDS011;23311;48.776;9.162;2022-10-18T14:58:21;3.60;;;2.50;;
291;SDS011;23311;48.776;9.162;2022-10-18T15:00:49;4.20;;;3.10;;
291;SDS011;23311;48.776;9.162;2022-10-18T15:03:19;4.60;;;2.77;;
291;SDS011;23311;48.776;9.162;2022-10-18T15:05:52;6.73;;;3.30;;
291;SDS011;23311;48.776;9.162;2022-10-18T15:08:22;6.77;;;3.10;;
291;SDS011;23311;48.776;9.162;2022-10-18T15:10:52;6.20;;;3.33;;
291;SDS011;23311;48.776;9.162;2022-10-18T15:13:21;3.63;;;2.70;;
291;SDS011;23311;48.776;9.162;2022-10-18T15:15:50;3.60;;;3.40;;
291;SDS011;23311;48.776;9.162;2022-10-18T15:18:22;4.00;;;3.00;;
291;SDS011;23311;48.776;9.162;2022-10-18T15:21:07;3.30;;;2.60;;
291;SDS011;23311;48.776;9.162;2022-10-18T15:23:46;3.10;;;2.90;;
291;SDS011;23311;48.776;9.162;2022-10-18T15:26:15;5.60;;;2.90;;
291;SDS011;23311;48.776;9.162;2022-10-18T15:28:48;4.17;;;2.73;;
291;SDS011;23311;48.776;9.162;2022-10-18T15:31:21;4.03;;;2.87;;
291;SDS011;23311;48.776;9.162;2022-10-18T15:33:54;4.73;;;3.40;;
291;SDS011;23311;48.776;9.162;2022-10-18T15:36:35;4.20;;;3.80;;
291;SDS011;23311;48.776;9.162;2022-10-18T15:39:05;4.80;;;3.13;;
291;SDS011;23311;48.776;9.162;2022-10-18T15:41:35;3.50;;;3.10;;
291;SDS011;23311;48.776;9.162;2022-10-18T15:44:07;4.40;;;2.77;;
291;SDS011;23311;48.776;9.162;2022-10-18T15:46:45;3.10;;;2.80;;
291;SDS011;23311;48.776;9.162;2022-10-18T15:52:33;5.23;;;3.60;;
291;SDS011;23311;48.776;9.162;2022-10-18T15:58:10;3.30;;;3.10;;
291;SDS011;23311;48.776;9.162;2022-10-18T16:00:42;2.73;;;2.50;;
291;SDS011;23311;48.776;9.162;2022-10-18T16:03:11;4.77;;;3.80;;
291;SDS011;23311;48.776;9.162;2022-10-18T16:05:41;3.40;;;2.97;;
291;SDS011;23311;48.776;9.162;2022-10-18T16:08:17;4.80;;;4.10;;
291;SDS011;23311;48.776;9.162;2022-10-18T16:10:46;4.17;;;3.90;;
291;SDS011;23311;48.776;9.162;2022-10-18T16:13:14;4.37;;;3.60;;
291;SDS011;23311;48.776;9.162;2022-10-18T16:15:42;4.57;;;3.67;;
291;SDS011;23311;48.776;9.162;2022-10-18T16:18:12;4.33;;;3.53;;
291;SDS011;23311;48.776;9.162;2022-10-18T16:20:43;4.23;;;3.60;;